createdAt,value
2023-01-11T00:01:24.840Z,16.52
2023-01-11T00:04:30.807Z,16.42
2023-01-11T00:07:33.104Z,16.48
2023-01-11T00:10:35.505Z,16.44
2023-01-11T00:13:39.687Z,16.34
2023-01-11T00:16:43.585Z,16.27
2023-01-11T00:19:50.347Z,16.14
2023-01-11T00:22:54.312Z,16.13
2023-01-11T00:25:56.841Z,16.08
2023-01-11T00:28:59.178Z,15.98
2023-01-11T00:32:01.420Z,16.14
2023-01-11T00:35:03.670Z,16.04
2023-01-11T00:38:05.882Z,15.90
2023-01-11T00:41:29.297Z,15.93
2023-01-11T00:44:50.328Z,15.96
2023-01-11T00:47:58.543Z,15.80
2023-01-11T00:51:00.754Z,15.93
2023-01-11T00:54:03.593Z,15.80
2023-01-11T00:57:07.555Z,15.85
2023-01-11T01:00:10.603Z,15.85
2023-01-11T01:03:12.810Z,15.67
2023-01-11T01:06:14.991Z,15.75
2023-01-11T01:09:17.199Z,15.68
2023-01-11T01:12:37.936Z,15.94
2023-01-11T01:15:40.141Z,15.76
2023-01-11T01:18:42.378Z,15.65
2023-01-11T01:21:44.578Z,15.76
2023-01-11T01:24:46.939Z,15.82
2023-01-11T01:27:49.140Z,15.77
2023-01-11T01:30:52.899Z,15.87
2023-01-11T01:33:57.868Z,15.85
2023-01-11T01:37:00.719Z,15.81
2023-01-11T01:40:03.045Z,15.81
2023-01-11T01:43:13.305Z,15.87
2023-01-11T01:46:16.712Z,15.84
2023-01-11T01:49:19.331Z,15.80
2023-01-11T01:52:29.547Z,15.67
2023-01-11T01:55:36.245Z,15.53
2023-01-11T01:58:47.155Z,15.73
2023-01-11T02:01:50.411Z,15.74
2023-01-11T02:04:56.412Z,15.82
2023-01-11T02:08:01.236Z,15.77
2023-01-11T02:11:04.429Z,15.69
2023-01-11T02:14:12.824Z,15.63
2023-01-11T02:17:15.244Z,15.66
2023-01-11T02:20:39.993Z,15.59
2023-01-11T02:23:50.702Z,15.68
2023-01-11T02:27:30.910Z,15.62
2023-01-11T02:30:52.791Z,15.63
2023-01-11T02:34:13.833Z,15.67
2023-01-11T02:37:28.149Z,15.66
2023-01-11T02:41:07.093Z,15.56
2023-01-11T02:44:33.097Z,15.54
2023-01-11T02:47:46.773Z,15.61
2023-01-11T02:50:56.809Z,15.66
2023-01-11T02:54:08.567Z,15.53
2023-01-11T02:57:14.133Z,15.52
2023-01-11T03:00:18.183Z,15.38
2023-01-11T03:03:24.992Z,15.35
2023-01-11T03:06:35.107Z,15.23
2023-01-11T03:09:58.577Z,15.36
2023-01-11T03:13:09.330Z,15.49
2023-01-11T03:16:20.326Z,15.45
2023-01-11T03:19:22.362Z,15.32
2023-01-11T03:22:46.576Z,15.29
2023-01-11T03:26:04.179Z,15.21
2023-01-11T03:29:09.280Z,15.27
2023-01-11T03:32:21.132Z,15.28
2023-01-11T03:35:40.066Z,15.27
2023-01-11T03:39:26.819Z,15.15
2023-01-11T03:42:31.057Z,15.15
2023-01-11T03:45:38.077Z,15.02
2023-01-11T03:48:50.316Z,15.06
2023-01-11T03:51:57.028Z,15.00
2023-01-11T03:55:00.206Z,15.07
2023-01-11T03:58:02.340Z,15.12
2023-01-11T04:01:04.839Z,15.08
2023-01-11T04:04:07.270Z,15.02
2023-01-11T04:07:09.439Z,15.14
2023-01-11T04:10:11.891Z,15.07
2023-01-11T04:13:13.974Z,15.11
2023-01-11T04:16:16.026Z,15.11
2023-01-11T04:19:18.136Z,15.13
2023-01-11T04:22:20.156Z,15.06
2023-01-11T04:25:22.923Z,14.93
2023-01-11T04:28:24.979Z,14.96
2023-01-11T04:31:27.972Z,14.96
2023-01-11T04:34:30.147Z,14.85
2023-01-11T04:37:32.169Z,14.86
2023-01-11T04:40:34.827Z,14.96
2023-01-11T04:43:37.915Z,14.79
2023-01-11T04:46:40.462Z,14.92
2023-01-11T04:49:42.950Z,14.85
2023-01-11T04:52:47.279Z,14.92
2023-01-11T04:55:49.551Z,14.93
2023-01-11T04:58:51.660Z,14.87
2023-01-11T05:01:53.800Z,14.92
2023-01-11T05:04:55.934Z,14.80
2023-01-11T05:07:58.495Z,14.93
2023-01-11T05:11:04.962Z,14.92
2023-01-11T05:14:07.156Z,14.80
2023-01-11T05:17:18.910Z,14.74
2023-01-11T05:20:21.059Z,14.71
2023-01-11T05:23:24.293Z,14.75
2023-01-11T05:26:35.036Z,14.71
2023-01-11T05:29:37.256Z,14.31
2023-01-11T05:32:42.060Z,14.13
2023-01-11T05:35:44.096Z,15.12
2023-01-11T05:38:47.851Z,15.41
2023-01-11T05:41:50.049Z,15.75
2023-01-11T05:45:11.041Z,15.84
2023-01-11T05:48:13.153Z,16.13
2023-01-11T05:51:15.561Z,16.39
2023-01-11T05:54:17.635Z,17.00
2023-01-11T05:57:19.940Z,17.48
2023-01-11T06:00:22.758Z,18.49
2023-01-11T06:03:26.247Z,17.82
2023-01-11T06:06:28.419Z,18.03
2023-01-11T06:09:30.462Z,18.50
2023-01-11T06:12:32.354Z,18.65
2023-01-11T06:15:35.964Z,17.85
2023-01-11T06:18:48.980Z,18.17
2023-01-11T06:21:50.950Z,18.48
2023-01-11T06:24:52.925Z,17.84
2023-01-11T06:27:55.070Z,17.67
2023-01-11T06:30:58.618Z,17.97
2023-01-11T06:34:01.042Z,18.42
2023-01-11T06:37:03.637Z,18.26
2023-01-11T06:40:06.252Z,18.04
2023-01-11T06:43:09.982Z,17.79
2023-01-11T06:46:14.924Z,17.70
2023-01-11T06:49:17.132Z,17.73
2023-01-11T06:52:19.383Z,18.71
2023-01-11T06:55:23.345Z,18.30
2023-01-11T06:58:26.349Z,19.47
2023-01-11T07:01:30.974Z,20.95
2023-01-11T07:04:33.232Z,20.86
2023-01-11T07:07:39.976Z,19.78
2023-01-11T07:10:43.976Z,18.98
2023-01-11T07:13:46.348Z,19.04
2023-01-11T07:16:48.722Z,19.36
2023-01-11T07:19:51.860Z,18.57
2023-01-11T07:22:59.536Z,18.32
2023-01-11T07:26:02.740Z,19.16
2023-01-11T07:29:04.914Z,19.15
2023-01-11T07:32:07.202Z,18.58
2023-01-11T07:35:10.944Z,18.43
2023-01-11T07:38:13.348Z,19.56
2023-01-11T07:41:35.558Z,19.43
2023-01-11T07:44:47.264Z,18.88
2023-01-11T07:47:53.060Z,19.00
2023-01-11T07:50:55.481Z,19.22
2023-01-11T07:53:59.791Z,18.91
2023-01-11T07:57:02.173Z,19.04
2023-01-11T08:00:04.694Z,19.33
2023-01-11T08:03:13.916Z,19.19
2023-01-11T08:06:17.941Z,19.28
2023-01-11T08:09:22.362Z,18.65
2023-01-11T08:12:42.782Z,19.02
2023-01-11T08:15:45.496Z,18.96
2023-01-11T08:18:48.226Z,18.59
2023-01-11T08:21:51.383Z,18.96
2023-01-11T08:24:55.185Z,19.02
2023-01-11T08:27:59.996Z,19.23
2023-01-11T08:31:09.207Z,18.26
2023-01-11T08:34:11.771Z,18.95
2023-01-11T08:37:14.627Z,19.30
2023-01-11T08:40:18.359Z,18.90
2023-01-11T08:43:20.369Z,18.38
2023-01-11T08:46:22.619Z,18.67
2023-01-11T08:49:26.885Z,18.89
2023-01-11T08:52:29.264Z,18.97
2023-01-11T08:55:33.510Z,18.03
2023-01-11T08:58:35.875Z,18.75
2023-01-11T09:01:38.245Z,18.64
2023-01-11T09:04:40.394Z,18.45
2023-01-11T09:07:42.391Z,18.57
2023-01-11T09:10:44.546Z,18.37
2023-01-11T09:13:50.355Z,18.49
2023-01-11T09:16:53.585Z,18.23
2023-01-11T09:19:55.734Z,18.79
2023-01-11T09:22:57.795Z,19.10
2023-01-11T09:26:00.247Z,18.80
2023-01-11T09:29:03.044Z,18.61
2023-01-11T09:32:08.450Z,18.77
2023-01-11T09:35:10.547Z,18.67
2023-01-11T09:38:13.120Z,18.33
2023-01-11T09:41:39.147Z,18.72
2023-01-11T09:44:51.014Z,19.34
2023-01-11T09:48:12.163Z,19.05
2023-01-11T09:51:16.610Z,18.72
2023-01-11T09:54:26.893Z,18.94
2023-01-11T09:57:38.411Z,19.12
2023-01-11T10:00:49.557Z,18.58
2023-01-11T10:04:06.233Z,18.92
2023-01-11T10:07:38.165Z,18.88
2023-01-11T10:18:31.996Z,18.94
2023-01-11T10:18:39.451Z,19.43
2023-01-11T10:21:44.223Z,19.26
2023-01-11T10:24:56.511Z,19.02
2023-01-11T10:28:01.005Z,19.71
2023-01-11T10:31:31.076Z,18.65
2023-01-11T10:35:13.075Z,18.55
2023-01-11T10:38:41.085Z,19.05
2023-01-11T10:42:10.536Z,18.92
2023-01-11T10:45:18.826Z,18.40
2023-01-11T10:48:33.524Z,18.57
2023-01-11T10:51:41.737Z,18.85
2023-01-11T10:54:47.764Z,19.26
2023-01-11T10:58:43.716Z,18.75
2023-01-11T11:01:54.866Z,19.43
2023-01-11T11:05:18.479Z,19.63
2023-01-11T11:08:46.947Z,18.97
2023-01-11T11:11:54.050Z,19.98
2023-01-11T11:15:19.083Z,20.24
2023-01-11T11:18:21.109Z,19.38
2023-01-11T11:21:28.849Z,20.08
2023-01-11T11:24:43.180Z,20.30
2023-01-11T11:27:50.413Z,20.20
2023-01-11T11:30:54.935Z,19.85
2023-01-11T11:33:58.733Z,20.37
2023-01-11T11:37:01.767Z,20.13
2023-01-11T11:40:05.371Z,19.18
2023-01-11T11:43:28.492Z,19.56
2023-01-11T11:46:31.278Z,19.10
2023-01-11T11:49:35.713Z,18.48
2023-01-11T11:52:42.498Z,18.58
2023-01-11T11:55:44.671Z,18.89
2023-01-11T11:58:48.203Z,18.56
2023-01-11T12:02:08.143Z,18.52
2023-01-11T12:05:11.427Z,20.24
2023-01-11T12:08:15.307Z,19.81
2023-01-11T12:11:23.448Z,19.75
2023-01-11T12:14:35.821Z,19.64
2023-01-11T12:17:37.822Z,20.71
2023-01-11T12:20:41.408Z,18.95
2023-01-11T12:23:43.821Z,18.64
2023-01-11T12:27:04.386Z,20.23
2023-01-11T12:30:22.136Z,20.55
2023-01-11T12:33:57.845Z,19.64
2023-01-11T12:37:09.185Z,19.79
2023-01-11T12:40:20.010Z,20.41
2023-01-11T12:43:41.962Z,20.23
2023-01-11T12:46:54.707Z,18.93
2023-01-11T12:49:58.463Z,20.02
2023-01-11T12:53:23.615Z,19.43
2023-01-11T12:56:44.444Z,18.96
2023-01-11T12:59:51.464Z,19.28
2023-01-11T13:03:34.587Z,19.92
2023-01-11T13:06:47.598Z,19.91
2023-01-11T13:10:01.450Z,19.30
2023-01-11T13:13:32.498Z,19.71
2023-01-11T13:16:56.578Z,19.48
2023-01-11T13:20:23.704Z,19.81
2023-01-11T13:23:39.326Z,19.47
2023-01-11T13:26:50.764Z,20.26
2023-01-11T13:29:56.124Z,20.06
2023-01-11T13:33:06.543Z,19.28
2023-01-11T13:36:23.455Z,19.63
2023-01-11T13:40:05.779Z,20.00
2023-01-11T13:43:19.953Z,19.32
2023-01-11T13:46:32.162Z,19.72
2023-01-11T13:50:14.565Z,19.77
2023-01-11T13:53:42.501Z,19.37
2023-01-11T13:56:57.409Z,18.84
2023-01-11T14:00:29.865Z,19.40
2023-01-11T14:03:48.298Z,19.62
2023-01-11T14:07:14.536Z,18.74
2023-01-11T14:10:28.232Z,19.31
2023-01-11T14:14:06.056Z,19.16
2023-01-11T14:17:37.548Z,18.83
2023-01-11T14:20:45.804Z,19.59
2023-01-11T14:23:48.016Z,19.79
2023-01-11T14:27:34.395Z,19.38
2023-01-11T14:30:37.181Z,19.02
2023-01-11T14:33:58.312Z,19.81
2023-01-11T14:37:33.202Z,20.07
2023-01-11T14:41:13.644Z,18.96
2023-01-11T14:44:25.631Z,19.16
2023-01-11T14:47:55.766Z,19.62
2023-01-11T14:51:14.296Z,19.01
2023-01-11T14:54:23.360Z,18.83
2023-01-11T14:57:46.978Z,19.20
2023-01-11T15:00:50.538Z,19.21
2023-01-11T15:03:56.543Z,19.23
2023-01-11T15:06:59.259Z,19.58
2023-01-11T15:10:04.690Z,19.65
2023-01-11T15:13:14.077Z,18.87
2023-01-11T15:16:49.728Z,19.26
2023-01-11T15:19:54.146Z,19.60
2023-01-11T15:26:27.067Z,18.55
2023-01-11T15:29:40.469Z,19.34
2023-01-11T15:32:44.820Z,19.25
2023-01-11T15:35:55.962Z,18.51
2023-01-11T15:39:03.590Z,18.43
2023-01-11T15:42:20.966Z,19.22
2023-01-11T15:45:29.189Z,18.81
2023-01-11T15:48:52.684Z,18.72
2023-01-11T15:52:13.628Z,19.19
2023-01-11T15:55:23.811Z,19.70
2023-01-11T15:59:13.650Z,18.02
2023-01-11T16:02:46.941Z,18.95
2023-01-11T16:06:08.156Z,19.24
2023-01-11T16:09:25.221Z,18.12
2023-01-11T16:12:49.238Z,18.58
2023-01-11T16:16:22.030Z,18.95
2023-01-11T16:19:29.294Z,18.33
2023-01-11T16:22:31.326Z,18.83
2023-01-11T16:25:37.851Z,18.51
2023-01-11T16:28:50.231Z,18.59
2023-01-11T16:32:44.638Z,17.80
2023-01-11T16:35:47.656Z,17.15
2023-01-11T16:38:59.922Z,17.07
2023-01-11T16:42:12.385Z,16.99
2023-01-11T16:45:22.024Z,16.73
2023-01-11T16:48:31.056Z,17.14
2023-01-11T16:51:33.119Z,17.48
2023-01-11T16:54:40.817Z,17.03
2023-01-11T16:57:52.047Z,16.52
2023-01-11T17:01:16.783Z,16.27
2023-01-11T17:04:51.037Z,16.16
2023-01-11T17:07:53.091Z,16.05
2023-01-11T17:11:02.687Z,16.11
2023-01-11T17:14:47.681Z,15.82
2023-01-11T17:17:51.505Z,15.75
2023-01-11T17:20:57.495Z,15.66
2023-01-11T17:24:03.183Z,15.57
2023-01-11T17:27:09.154Z,15.62
2023-01-11T17:30:25.160Z,15.64
2023-01-11T17:33:35.914Z,15.61
2023-01-11T17:36:40.716Z,15.50
2023-01-11T17:39:50.817Z,15.56
2023-01-11T17:43:15.524Z,15.32
2023-01-11T17:46:37.111Z,15.31
2023-01-11T17:49:39.777Z,15.18
2023-01-11T17:52:54.256Z,15.24
2023-01-11T17:56:08.148Z,15.12
2023-01-11T17:59:20.603Z,14.93
2023-01-11T18:02:27.038Z,14.69
2023-01-11T18:05:31.387Z,14.51
2023-01-11T18:08:34.451Z,14.51
2023-01-11T18:11:40.129Z,14.30
2023-01-11T18:14:53.335Z,14.33
2023-01-11T18:18:01.281Z,14.29
2023-01-11T18:21:05.497Z,14.17
2023-01-11T18:24:11.375Z,14.10
2023-01-11T18:27:32.014Z,15.62
2023-01-11T18:30:33.967Z,16.22
2023-01-11T18:33:40.610Z,16.46
2023-01-11T18:36:42.693Z,16.73
2023-01-11T18:39:46.785Z,17.33
2023-01-11T18:42:53.442Z,17.68
2023-01-11T18:45:56.639Z,17.30
2023-01-11T18:49:01.266Z,17.70
2023-01-11T18:52:04.779Z,18.32
2023-01-11T18:55:11.501Z,17.95
2023-01-11T18:58:14.161Z,17.84
2023-01-11T19:01:17.470Z,18.59
2023-01-11T19:04:23.176Z,18.53
2023-01-11T19:07:26.927Z,19.98
2023-01-11T19:10:29.576Z,21.02
2023-01-11T19:13:31.752Z,19.92
2023-01-11T19:16:34.210Z,21.73
2023-01-11T19:19:40.709Z,21.34
2023-01-11T19:22:46.480Z,20.48
2023-01-11T19:25:57.232Z,21.54
2023-01-11T19:28:59.558Z,21.37
2023-01-11T19:32:03.341Z,20.19
2023-01-11T19:35:08.221Z,19.11
2023-01-11T19:38:10.627Z,19.81
2023-01-11T19:41:16.567Z,19.37
2023-01-11T19:44:18.745Z,18.80
2023-01-11T19:47:20.806Z,18.06
2023-01-11T19:50:23.179Z,17.99
2023-01-11T19:53:25.318Z,17.69
2023-01-11T19:56:54.950Z,17.36
2023-01-11T20:00:03.833Z,17.07
2023-01-11T20:03:14.818Z,16.95
2023-01-11T20:06:19.314Z,16.79
2023-01-11T20:09:22.888Z,16.94
2023-01-11T20:12:34.236Z,16.74
2023-01-11T20:15:45.149Z,16.73
2023-01-11T20:18:55.312Z,16.37
2023-01-11T20:21:58.452Z,16.44
2023-01-11T20:25:15.492Z,16.20
2023-01-11T20:28:20.709Z,16.07
2023-01-11T20:31:31.529Z,15.87
2023-01-11T20:34:33.722Z,15.88
2023-01-11T20:37:46.831Z,15.30
2023-01-11T20:40:49.976Z,15.68
2023-01-11T20:43:52.597Z,15.85
2023-01-11T20:46:59.281Z,15.72
2023-01-11T20:50:01.650Z,15.63
2023-01-11T20:53:04.148Z,15.54
2023-01-11T20:56:07.059Z,15.76
2023-01-11T21:02:13.884Z,15.32
2023-01-11T21:05:20.449Z,15.54
2023-01-11T21:08:23.084Z,15.52
2023-01-11T21:11:27.227Z,15.54
2023-01-11T21:14:30.916Z,15.67
2023-01-11T21:17:35.626Z,15.53
2023-01-11T21:20:40.603Z,15.44
2023-01-11T21:23:44.563Z,15.37
2023-01-11T21:26:49.067Z,15.35
2023-01-11T21:29:55.652Z,15.47
2023-01-11T21:32:58.925Z,15.41
2023-01-11T21:36:09.236Z,15.48
2023-01-11T21:39:22.794Z,15.50
2023-01-11T21:42:26.827Z,15.35
2023-01-11T21:45:30.587Z,15.20
2023-01-11T21:48:34.301Z,15.27
2023-01-11T21:51:39.174Z,15.22
2023-01-11T21:54:43.668Z,15.16
2023-01-11T21:57:46.607Z,15.16
2023-01-11T22:00:52.547Z,15.04
2023-01-11T22:03:56.974Z,15.12
2023-01-11T22:07:00.301Z,14.95
2023-01-11T22:10:05.438Z,14.92
2023-01-11T22:13:08.795Z,14.96
2023-01-11T22:16:17.584Z,14.90
2023-01-11T22:19:20.238Z,14.72
2023-01-11T22:22:24.188Z,14.76
2023-01-11T22:25:32.435Z,14.75
2023-01-11T22:29:00.793Z,14.33
2023-01-11T22:32:04.514Z,14.65
2023-01-11T22:35:08.581Z,14.42
2023-01-11T22:38:12.943Z,14.37
2023-01-11T22:41:16.202Z,14.43
2023-01-11T22:44:23.383Z,14.27
2023-01-11T22:47:25.707Z,14.05
2023-01-11T22:50:27.751Z,14.36
2023-01-11T22:53:30.657Z,14.47
2023-01-11T22:56:34.046Z,14.27
2023-01-11T22:59:36.161Z,14.04
2023-01-11T23:02:38.364Z,14.05
2023-01-11T23:05:46.009Z,13.97
2023-01-11T23:08:49.815Z,14.00
2023-01-11T23:12:10.608Z,14.08
2023-01-11T23:15:13.025Z,14.10
2023-01-11T23:18:15.684Z,14.02
2023-01-11T23:21:21.219Z,13.85
2023-01-11T23:24:24.287Z,13.88
2023-01-11T23:27:26.724Z,13.69
2023-01-11T23:30:30.396Z,13.69
2023-01-11T23:33:34.523Z,13.76
2023-01-11T23:36:39.636Z,13.78
2023-01-11T23:39:43.874Z,13.69
2023-01-11T23:42:46.836Z,13.56
2023-01-11T23:45:49.186Z,13.44
2023-01-11T23:48:52.148Z,13.41
2023-01-11T23:51:57.480Z,13.51
2023-01-11T23:54:59.889Z,13.43
2023-01-11T23:58:12.106Z,13.48
